Map

Track Data

SID SEASON NUMBER BASIN SUBBASIN NAME ISO_TIME NATURE LAT LON WMO_WIND WMO_PRES WMO_AGENCY TRACK_TYPE DIST2LAND LANDFALL IFLAG USA_AGENCY USA_ATCF_ID USA_LAT USA_LON USA_RECORD USA_STATUS USA_WIND USA_PRES USA_SSHS USA_R34_NE USA_R34_SE USA_R34_SW USA_R34_NW USA_R50_NE USA_R50_SE USA_R50_SW USA_R50_NW USA_R64_NE USA_R64_SE USA_R64_SW USA_R64_NW USA_POCI USA_ROCI USA_RMW USA_EYE TOKYO_LAT TOKYO_LON TOKYO_GRADE TOKYO_WIND TOKYO_PRES TOKYO_R50_DIR TOKYO_R50_LONG TOKYO_R50_SHORT TOKYO_R30_DIR TOKYO_R30_LONG TOKYO_R30_SHORT TOKYO_LAND CMA_LAT CMA_LON CMA_CAT CMA_WIND CMA_PRES HKO_LAT HKO_LON HKO_CAT HKO_WIND HKO_PRES NEWDELHI_LAT NEWDELHI_LON NEWDELHI_GRADE NEWDELHI_WIND NEWDELHI_PRES NEWDELHI_CI NEWDELHI_DP NEWDELHI_POCI REUNION_LAT REUNION_LON REUNION_TYPE REUNION_WIND REUNION_PRES REUNION_TNUM REUNION_CI REUNION_RMW REUNION_R34_NE REUNION_R34_SE REUNION_R34_SW REUNION_R34_NW REUNION_R50_NE REUNION_R50_SE REUNION_R50_SW REUNION_R50_NW REUNION_R64_NE REUNION_R64_SE REUNION_R64_SW REUNION_R64_NW BOM_LAT BOM_LON BOM_TYPE BOM_WIND BOM_PRES BOM_TNUM BOM_CI BOM_RMW BOM_R34_NE BOM_R34_SE BOM_R34_SW BOM_R34_NW BOM_R50_NE BOM_R50_SE BOM_R50_SW BOM_R50_NW BOM_R64_NE BOM_R64_SE BOM_R64_SW BOM_R64_NW BOM_ROCI BOM_POCI BOM_EYE BOM_POS_METHOD BOM_PRES_METHOD NADI_LAT NADI_LON NADI_CAT NADI_WIND NADI_PRES WELLINGTON_LAT WELLINGTON_LON WELLINGTON_WIND WELLINGTON_PRES DS824_LAT DS824_LON DS824_STAGE DS824_WIND DS824_PRES TD9636_LAT TD9636_LON TD9636_STAGE TD9636_WIND TD9636_PRES TD9635_LAT TD9635_LON TD9635_WIND TD9635_PRES TD9635_ROCI NEUMANN_LAT NEUMANN_LON NEUMANN_CLASS NEUMANN_WIND NEUMANN_PRES MLC_LAT MLC_LON MLC_CLASS MLC_WIND MLC_PRES USA_GUST BOM_GUST BOM_GUST_PER REUNION_GUST REUNION_GUST_PER USA_SEAHGT USA_SEARAD_NE USA_SEARAD_SE USA_SEARAD_SW USA_SEARAD_NW STORM_SPEED STORM_DIR
1917040S13057 1917 10 SI MM NOT_NAMED 1917-02-09 00:00:00 TS -13.0000 57.1000 main 753 733 _________O____ -1 -13.0000 57.1000 TC 25 5 261
1917040S13057 1917 10 SI MM NOT_NAMED 1917-02-09 03:00:00 TS -13.0400 56.8500 main 733 698 _________P____ -1 -13.0400 56.8500 TC 25 5 258
1917040S13057 1917 10 SI MM NOT_NAMED 1917-02-09 06:00:00 TS -13.1000 56.6000 main 698 674 _________O____ -1 -13.1000 56.6000 TC 25 5 253
1917040S13057 1917 10 SI MM NOT_NAMED 1917-02-09 09:00:00 TS -13.1925 56.3500 main 674 640 _________P____ -1 -13.1925 56.3500 TC 25 5 248
1917040S13057 1917 10 SI MM NOT_NAMED 1917-02-09 12:00:00 TS -13.3000 56.1000 main 640 615 _________O____ -1 -13.3000 56.1000 TC 25 5 247
1917040S13057 1917 10 SI MM NOT_NAMED 1917-02-09 15:00:00 TS -13.4000 55.8575 main 615 581 _________P____ -1 -13.4000 55.8575 TC 25 5 248
1917040S13057 1917 10 SI MM NOT_NAMED 1917-02-09 18:00:00 TS -13.5000 55.6000 main 581 547 _________O____ -1 -13.5000 55.6000 TC 25 6 250
1917040S13057 1917 10 SI MM NOT_NAMED 1917-02-09 21:00:00 TS -13.6000 55.3000 main 547 513 _________P____ -1 -13.6000 55.3000 TC 25 6 251
1917040S13057 1917 10 SI MM NOT_NAMED 1917-02-10 00:00:00 TS -13.7000 55.0000 main 513 488 _________O____ -1 -13.7000 55.0000 TC 25 6 249
1917040S13057 1917 10 SI MM NOT_NAMED 1917-02-10 03:00:00 TS -13.8074 54.7500 main 478 454 _________P____ -1 -13.8074 54.7500 TC 25 5 248
1917040S13057 1917 10 SI MM NOT_NAMED 1917-02-10 06:00:00 TS -13.9000 54.5000 main 454 420 _________O____ -1 -13.9000 54.5000 TC 25 6 254
1917040S13057 1917 10 SI MM NOT_NAMED 1917-02-10 09:00:00 TS -13.9575 54.1925 main 420 389 _________P____ -1 -13.9575 54.1925 TC 25 6 260
1917040S13057 1917 10 SI MM NOT_NAMED 1917-02-10 12:00:00 TS -14.0000 53.9000 main 389 369 _________O____ -1 -14.0000 53.9000 TC 25 5 259
1917040S13057 1917 10 SI MM NOT_NAMED 1917-02-10 15:00:00 TS -14.0499 53.6850 main 369 345 _________P____ -1 -14.0499 53.6850 TC 25 4 256
1917040S13057 1917 10 SI MM NOT_NAMED 1917-02-10 18:00:00 TS -14.1000 53.5000 main 345 325 _________O____ -1 -14.1000 53.5000 TC 25 4 255
1917040S13057 1917 10 SI MM NOT_NAMED 1917-02-10 21:00:00 TS -14.1424 53.3224 main 325 301 _________P____ -1 -14.1424 53.3224 TC 25 4 256
1917040S13057 1917 10 SI MM NOT_NAMED 1917-02-11 00:00:00 TS -14.2000 53.1000 main 301 267 _________O____ -1 -14.2000 53.1000 TC 25 6 255
1917040S13057 1917 10 SI MM NOT_NAMED 1917-02-11 03:00:00 TS -14.2851 52.7650 main 267 223 _________P____ -1 -14.2851 52.7650 TC 25 7 254
1917040S13057 1917 10 SI MM NOT_NAMED 1917-02-11 06:00:00 TS -14.4000 52.4000 main 223 189 _________O____ -1 -14.4000 52.4000 TC 25 7 247
1917040S13057 1917 10 SI MM NOT_NAMED 1917-02-11 09:00:00 TS -14.5574 52.0925 main 184 150 _________P____ -1 -14.5574 52.0925 TC 25 7 243
1917040S13057 1917 10 SI MM NOT_NAMED 1917-02-11 12:00:00 TS -14.7000 51.8000 main 150 116 _________O____ -1 -14.7000 51.8000 TC 25 6 251
1917040S13057 1917 10 SI MM NOT_NAMED 1917-02-11 15:00:00 TS -14.7575 51.4999 main 116 87 _________P____ -1 -14.7575 51.4999 TC 25 6 260
1917040S13057 1917 10 SI MM NOT_NAMED 1917-02-11 18:00:00 TS -14.8000 51.2000 main 87 63 _________O____ -1 -14.8000 51.2000 TC 25 5 258
1917040S13057 1917 10 SI MM NOT_NAMED 1917-02-11 21:00:00 TS -14.8697 50.9522 main 63 24 _________P____ -1 -14.8697 50.9522 TC 25 6 251
1917040S13057 1917 10 SI MM NOT_NAMED 1917-02-12 00:00:00 TS -15.0000 50.6000 main 24 0 _________O____ -1 -15.0000 50.6000 TC 25 10 249
1917040S13057 1917 10 SI MM NOT_NAMED 1917-02-12 03:00:00 TS -15.2277 50.0026 main 0 0 _________P____ -1 -15.2277 50.0026 TC 25 14 248
1917040S13057 1917 10 SI MM NOT_NAMED 1917-02-12 06:00:00 TS -15.5000 49.3000 main 0 0 _________O____ -1 -15.5000 49.3000 TC 25 14 248
1917040S13057 1917 10 SI MM NOT_NAMED 1917-02-12 09:00:00 TS -15.7575 48.6275 main 0 0 _________P____ -1 -15.7575 48.6275 TC 25 13 248
1917040S13057 1917 10 SI MM NOT_NAMED 1917-02-12 12:00:00 TS -16.0000 48.0000 main 0 0 _________O____ -1 -16.0000 48.0000 TC 25 12 248
1917040S13057 1917 10 SI MM NOT_NAMED 1917-02-12 15:00:00 TS -16.2072 47.4773 main 0 0 _________P____ -1 -16.2072 47.4773 TC 25 10 247
1917040S13057 1917 10 SI MM NOT_NAMED 1917-02-12 18:00:00 TS -16.4000 47.0000 main 0 0 _________O____ -1 -16.4000 47.0000 TC 25 10 248
1917040S13057 1917 10 SI MM NOT_NAMED 1917-02-12 21:00:00 TS -16.5924 46.4924 main 0 0 _________P____ -1 -16.5924 46.4924 TC 25 10 247
1917040S13057 1917 10 SI MM NOT_NAMED 1917-02-13 00:00:00 TS -16.8000 46.0000 main 0 0 _________O____ -1 -16.8000 46.0000 TC 25 10 244
1917040S13057 1917 10 SI MM NOT_NAMED 1917-02-13 03:00:00 TS -17.0423 45.5424 main 0 0 _________P____ -1 -17.0423 45.5424 TC 25 10 240
1917040S13057 1917 10 SI MM NOT_NAMED 1917-02-13 06:00:00 TS -17.3000 45.1000 main 0 0 _________O____ -1 -17.3000 45.1000 TC 25 10 240
1917040S13057 1917 10 SI MM NOT_NAMED 1917-02-13 09:00:00 TS -17.5425 44.6349 main 0 0 _________P____ -1 -17.5425 44.6349 TC 25 10 240
1917040S13057 1917 10 SI MM NOT_NAMED 1917-02-13 12:00:00 TS -17.8000 44.2000 main 0 0 _________O____ -1 -17.8000 44.2000 TC 25 10 236
1917040S13057 1917 10 SI MM NOT_NAMED 1917-02-13 15:00:00 TS -18.0700 43.8049 main 21 21 _________P____ -1 -18.0700 43.8049 TC 25 9 228
1917040S13057 1917 10 SI MM NOT_NAMED 1917-02-13 18:00:00 TS -18.4000 43.5000 main 52 52 _________O____ -1 -18.4000 43.5000 TC 25 9 214
1917040S13057 1917 10 SI MM NOT_NAMED 1917-02-13 21:00:00 TS -18.8124 43.2752 main 86 86 _________P____ -1 -18.8124 43.2752 TC 25 9 198
1917040S13057 1917 10 SI MM NOT_NAMED 1917-02-14 00:00:00 TS -19.3000 43.2000 main 107 107 _________O____ -1 -19.3000 43.2000 TC 25 10 181
1917040S13057 1917 10 SI MM NOT_NAMED 1917-02-14 03:00:00 TS -19.8499 43.2749 main 114 61 _________P____ -1 -19.8499 43.2749 TC 25 11 166
1917040S13057 1917 10 SI MM NOT_NAMED 1917-02-14 06:00:00 TS -20.4000 43.5000 main 61 10 _________O____ -1 -20.4000 43.5000 TC 25 11 154
1917040S13057 1917 10 SI MM NOT_NAMED 1917-02-14 09:00:00 TS -20.8272 43.7759 main 10 0 _________P____ -1 -20.8272 43.7759 TC 25 11 144
1917040S13057 1917 10 SI MM NOT_NAMED 1917-02-14 12:00:00 TS -21.3000 44.2000 main 0 0 _________O____ -1 -21.3000 44.2000 TC 25 15 140
1917040S13057 1917 10 SI MM NOT_NAMED 1917-02-14 15:00:00 TS -21.9627 44.8047 main 0 0 _________P____ -1 -21.9627 44.8047 TC 25 19 139
1917040S13057 1917 10 SI MM NOT_NAMED 1917-02-14 18:00:00 TS -22.7000 45.5000 main 0 0 _________O____ -1 -22.7000 45.5000 TC 25 19 139
1917040S13057 1917 10 SI MM NOT_NAMED 1917-02-14 21:00:00 TS -23.4299 46.1650 main 0 0 _________P____ -1 -23.4299 46.1650 TC 25 18 140
1917040S13057 1917 10 SI MM NOT_NAMED 1917-02-15 00:00:00 TS -24.1000 46.8000 main 0 0 _________O____ -1 -24.1000 46.8000 TC 25 16 138
1917040S13057 1917 10 SI MM NOT_NAMED 1917-02-15 03:00:00 TS -24.6371 47.3659 main 15 15 _________P____ -1 -24.6371 47.3659 TC 25 14 135
1917040S13057 1917 10 SI MM NOT_NAMED 1917-02-15 06:00:00 TS -25.1000 47.9000 main 81 81 _________O____ -1 -25.1000 47.9000 TC 25 14 134
1917040S13057 1917 10 SI MM NOT_NAMED 1917-02-15 09:00:00 TS -25.5798 48.4502 main 155 155 _________P____ -1 -25.5798 48.4502 TC 25 13 132
1917040S13057 1917 10 SI MM NOT_NAMED 1917-02-15 12:00:00 TS -26.0000 49.0000 main 220 220 _________O____ -1 -26.0000 49.0000 TC 25 12 126
1917040S13057 1917 10 SI MM NOT_NAMED 1917-02-15 15:00:00 TS -26.3149 49.5581 main 289 289 _________P____ -1 -26.3149 49.5581 TC 25 12 121
1917040S13057 1917 10 SI MM NOT_NAMED 1917-02-15 18:00:00 TS -26.6000 50.1000 main 349 349 _________O____ -1 -26.6000 50.1000 TC 25 11 124
1917040S13057 1917 10 SI MM NOT_NAMED 1917-02-15 21:00:00 TS -26.9498 50.6151 main 408 408 _________P____ -1 -26.9498 50.6151 TC 25 11 128
1917040S13057 1917 10 SI MM NOT_NAMED 1917-02-16 00:00:00 TS -27.3000 51.1000 main 474 474 _________O____ -1 -27.3000 51.1000 TC 25 11 128
1917040S13057 1917 10 SI MM NOT_NAMED 1917-02-16 03:00:00 TS -27.6072 51.5505 main 533 533 _________P____ -1 -27.6072 51.5505 TC 25 10 127
1917040S13057 1917 10 SI MM NOT_NAMED 1917-02-16 06:00:00 TS -27.9000 52.0000 main 585 585 _________O____ -1 -27.9000 52.0000 TC 25 10 125
1917040S13057 1917 10 SI MM NOT_NAMED 1917-02-16 09:00:00 TS -28.2075 52.5075 main 644 644 _________P____ -1 -28.2075 52.5075 TC 25 11 124
1917040S13057 1917 10 SI MM NOT_NAMED 1917-02-16 12:00:00 TS -28.5000 53.0000 main 703 703 _________O____ -1 -28.5000 53.0000 TC 25 10 125
1917040S13057 1917 10 SI MM NOT_NAMED 1917-02-16 15:00:00 TS -28.7572 53.4079 main 754 754 _________P____ -1 -28.7572 53.4079 TC 25 9 125
1917040S13057 1917 10 SI MM NOT_NAMED 1917-02-16 18:00:00 TS -29.0000 53.8000 main 799 799 _________O____ -1 -29.0000 53.8000 TC 25 9 124
1917040S13057 1917 10 SI MM NOT_NAMED 1917-02-16 21:00:00 TS -29.2575 54.2500 main 858 858 _________P____ -1 -29.2575 54.2500 TC 25 9 122
1917040S13057 1917 10 SI MM NOT_NAMED 1917-02-17 00:00:00 TS -29.5000 54.7000 main 902 902 _________O____ -1 -29.5000 54.7000 TC 25 9 121
1917040S13057 1917 10 SI MM NOT_NAMED 1917-02-17 03:00:00 TS -29.7073 55.1078 main 928 928 _________P____ -1 -29.7073 55.1078 TC 25 8 120
1917040S13057 1917 10 SI MM NOT_NAMED 1917-02-17 06:00:00 TS -29.9000 55.5000 main 949 949 _________O____ -1 -29.9000 55.5000 TC 25 8 120
1917040S13057 1917 10 SI MM NOT_NAMED 1917-02-17 09:00:00 TS -30.0999 55.9002 main 972 972 _________P____ -1 -30.0999 55.9002 TC 25 8 120
1917040S13057 1917 10 SI MM NOT_NAMED 1917-02-17 12:00:00 TS -30.3000 56.3000 main 996 996 _________O____ -1 -30.3000 56.3000 TC 25 8 120
1917040S13057 1917 10 SI MM NOT_NAMED 1917-02-17 15:00:00 TS -30.4998 56.6927 main 1022 1022 _________P____ -1 -30.4998 56.6927 TC 25 8 120
1917040S13057 1917 10 SI MM NOT_NAMED 1917-02-17 18:00:00 TS -30.7000 57.1000 main 1049 1049 _________O____ -1 -30.7000 57.1000 TC 25 8 119
1917040S13057 1917 10 SI MM NOT_NAMED 1917-02-17 21:00:00 TS -30.9004 57.5396 main 1077 1077 _________P____ -1 -30.9004 57.5396 TC 25 9 117
1917040S13057 1917 10 SI MM NOT_NAMED 1917-02-18 00:00:00 TS -31.1000 58.0000 main 1109 _________O____ -1 -31.1000 58.0000 TC 25 9 117

About IBTrACS Database

This database is a web-friendly format of International Best Track Archive for Climate Stewardship (IBTrACS), a global best track data archive curated by NOAA dating back to 1842.

Updated: 2021-10-27